Time;durP1;ratioP1;P1;durP2;ratioP2;P2;SDS_P1;SDS_P2;PMS_P1;PMS_P2;Temp;Humidity;BMP_temperature;BMP_pressure;BME280_temperature;BME280_humidity;BME280_pressure;Samples;Min_cycle;Max_cycle;Signal;HPM_P1;HPM_P2
2023/03/23 00:00:43;;;;;;;;;;;;;;;11.30;84.57;99763.91;5015245;28;20109;-84
2023/03/23 00:03:09;;;;;;;;;;;;;;;11.32;84.41;99767.38;5013289;28;19995;-84
2023/03/23 00:05:36;;;;;;;;;;;;;;;11.29;84.43;99775.34;5030418;28;20430;-84
2023/03/23 00:08:03;;;;;;;4.65;4.25;;;;;;;10.92;84.13;99702.03;5027619;28;19921;-84
2023/03/23 00:10:32;;;;;;;11.50;3.95;;;;;;;10.63;84.62;99720.94;5013211;28;20057;-85
2023/03/23 00:13:02;;;;;;;5.97;5.40;;;;;;;10.75;85.19;99739.22;5012650;28;20057;-85
2023/03/23 00:15:32;;;;;;;8.73;6.95;;;;;;;10.54;85.21;99736.03;5010288;28;20116;-85
2023/03/23 00:18:02;;;;;;;5.05;4.57;;;;;;;10.38;85.80;99702.88;5012725;28;20115;-86
2023/03/23 00:20:39;;;;;;;8.88;5.97;;;;;;;10.94;85.14;99779.44;5012508;28;20040;-85
2023/03/23 00:23:06;;;;;;;4.78;4.35;;;;;;;10.91;84.60;99775.06;5012287;28;20061;-86
2023/03/23 00:25:32;;;;;;;5.85;4.53;;;;;;;10.73;84.70;99735.75;5012594;28;20026;-85
2023/03/23 00:27:57;;;;;;;;;;;;;;;11.05;84.06;99766.94;5011789;28;20401;-84
2023/03/23 00:30:23;;;;;;;7.15;4.45;;;;;;;10.89;83.86;99741.66;5013535;28;19929;-84
2023/03/23 00:32:48;;;;;;;;;;;;;;;11.11;83.84;99769.47;5013197;28;20038;-84
2023/03/23 00:35:13;;;;;;;;;;;;;;;11.19;83.69;99761.44;5044592;28;19917;-83
2023/03/23 00:37:39;;;;;;;4.65;4.32;;;;;;;10.93;83.39;99702.00;5012943;28;20354;-83
2023/03/23 00:40:09;;;;;;;;;;;;;;;11.37;83.00;99762.00;5008621;28;20425;-83
2023/03/23 00:42:37;;;;;;;3.95;3.35;;;;;;;11.03;83.02;99709.78;5012369;28;19944;-84
2023/03/23 00:45:10;;;;;;;8.75;6.03;;;;;;;11.32;83.01;99740.09;5012303;28;20113;-84
2023/03/23 00:47:38;;;;;;;5.70;5.15;;;;;;;11.36;83.02;99724.16;5012026;28;20022;-85
2023/03/23 00:50:05;;;;;;;4.65;4.30;;;;;;;11.47;82.59;99742.47;5011882;28;20037;-84
2023/03/23 00:52:30;;;;;;;4.57;4.05;;;;;;;11.34;82.91;99735.66;5029486;28;20360;-85
2023/03/23 00:54:56;;;;;;;;;;;;;;;11.45;81.92;99739.00;5032061;28;20021;-85
2023/03/23 00:57:23;;;;;;;5.40;3.50;;;;;;;10.87;82.13;99659.88;5032336;28;20417;-84
2023/03/23 00:59:52;;;;;;;3.28;2.97;;;;;;;11.15;81.89;99725.41;5030122;28;20029;-85
2023/03/23 01:02:19;;;;;;;6.38;5.80;;;;;;;10.92;82.56;99704.66;5030046;28;20033;-84
2023/03/23 01:04:45;;;;;;;4.85;4.43;;;;;;;10.96;83.06;99730.13;5031140;28;20037;-85
2023/03/23 01:07:14;;;;;;;;;;;;;;;10.92;83.14;99741.63;5032149;28;20064;-84
2023/03/23 01:09:44;;;;;;;7.90;5.07;;;;;;;10.67;83.66;99701.56;5028076;28;20249;-84
2023/03/23 01:12:10;;;;;;;6.00;4.72;;;;;;;10.95;83.00;99740.72;5020429;28;20040;-84
2023/03/23 01:14:36;;;;;;;4.78;4.38;;;;;;;10.83;83.35;99728.56;5030873;28;20087;-84
2023/03/23 01:17:02;;;;;;;3.17;2.70;;;;;;;10.89;82.69;99726.72;5031233;28;20044;-84
2023/03/23 01:19:27;;;;;;;;;;;;;;;11.00;82.63;99754.69;5031749;28;20384;-84
2023/03/23 01:21:53;;;;;;;6.85;6.22;;;;;;;10.77;82.48;99695.25;5029331;28;19917;-84
2023/03/23 01:24:18;;;;;;;;;;;;;;;10.98;82.57;99748.56;5031477;28;20123;-85
2023/03/23 01:26:43;;;;;;;;;;;;;;;11.00;82.66;99752.94;5031047;28;19932;-84
2023/03/23 01:29:09;;;;;;;3.13;2.87;;;;;;;10.77;83.46;99718.09;5030917;28;19917;-84
2023/03/23 01:31:36;;;;;;;;;;;;;;;10.86;84.22;99754.91;5031571;28;20256;-84
2023/03/23 01:34:02;;;;;;;3.78;3.47;;;;;;;10.87;84.68;99759.31;5028235;28;20438;-84
2023/03/23 01:36:32;;;;;;;10.18;5.53;;;;;;;10.85;84.08;99724.16;5030647;28;20034;-85
2023/03/23 01:38:58;;;;;;;6.38;3.35;;;;;;;10.80;84.86;99747.97;5025094;28;20114;-84
2023/03/23 01:41:25;;;;;;;9.65;5.90;;;;;;;10.48;85.99;99724.69;5011766;28;20041;-84
2023/03/23 01:43:57;;;;;;;9.73;5.93;;;;;;;10.24;86.52;99695.13;5040769;28;20069;-84
2023/03/23 01:46:24;;;;;;;7.10;4.40;;;;;;;10.27;87.29;99728.47;5011317;28;20030;-84
2023/03/23 01:48:50;;;;;;;4.53;4.10;;;;;;;10.02;87.50;99708.59;5010852;28;20069;-84
2023/03/23 01:51:17;;;;;;;;;;;;;;;9.96;90.37;99752.56;5011655;28;20116;-84
2023/03/23 01:53:46;;;;;;;8.63;4.47;;;;;;;10.06;88.59;99696.22;5011994;28;19914;-84
2023/03/23 01:56:16;;;;;;;6.95;6.07;;;;;;;10.19;88.65;99718.00;5010948;28;20433;-84
2023/03/23 01:58:42;;;;;;;4.80;4.15;;;;;;;10.34;87.46;99736.31;5013796;28;20515;-84
2023/03/23 02:01:13;;;;;;;5.72;5.22;;;;;;;10.25;86.78;99715.31;5030433;28;20031;-84
2023/03/23 02:03:43;;;;;;;7.38;6.57;;;;;;;10.34;86.82;99736.31;5030315;28;20026;-85
2023/03/23 02:06:09;;;;;;;5.18;4.38;;;;;;;10.44;86.31;99723.00;5028907;28;20041;-85
2023/03/23 02:08:35;;;;;;;;;;;;;;;10.63;85.95;99764.06;5030026;28;20418;-84
2023/03/23 02:11:00;;;;;;;5.05;4.55;;;;;;;10.28;85.96;99702.06;5016587;28;19956;-85
2023/03/23 02:13:26;;;;;;;;;;;;;;;10.54;85.80;99772.94;5011256;28;20073;-85
2023/03/23 02:16:13;;;;;;;5.15;4.65;;;;;;;10.62;85.49;99742.97;5010665;28;19914;-85
2023/03/23 02:18:57;;;;;;;4.85;4.38;;;;;;;10.74;85.16;99769.19;5011310;28;20026;-85
2023/03/23 02:21:52;;;;;;;3.85;3.55;;;;;;;10.71;85.48;99764.81;5012233;28;20104;-86
2023/03/23 02:24:26;;;;;;;9.07;5.28;;;;;;;10.79;85.83;99766.47;5010570;28;20046;-85
2023/03/23 02:26:59;;;;;;;5.13;4.15;;;;;;;10.77;85.67;99750.66;5011215;28;20038;-85
2023/03/23 02:30:02;;;;;;;4.63;4.20;;;;;;;10.90;84.88;99767.16;5010994;28;20030;-85
2023/03/23 02:32:46;;;;;;;9.02;6.65;;;;;;;10.90;84.57;99760.13;5006989;28;20034;-85
2023/03/23 02:35:28;;;;;;;7.78;6.60;;;;;;;10.55;86.19;99766.78;4990960;28;20081;-85
2023/03/23 02:38:35;;;;;;;9.77;7.55;;;;;;;10.31;87.60;99764.44;4991299;28;20045;-85
2023/03/23 02:41:02;;;;;;;8.88;4.30;;;;;;;10.25;87.32;99704.75;5013303;28;20145;-85
2023/03/23 02:43:36;;;;;;;3.72;3.45;;;;;;;10.43;86.23;99718.63;5019918;28;20116;-84
2023/03/23 02:46:07;;;;;;;8.48;5.70;;;;;;;10.76;86.05;99759.47;5029939;28;20037;-85
2023/03/23 02:48:33;;;;;;;6.72;4.95;;;;;;;10.84;85.37;99749.66;5029949;28;20040;-84
2023/03/23 02:51:00;;;;;;;5.35;4.53;;;;;;;10.81;85.23;99749.69;5030716;28;20026;-85
2023/03/23 02:53:28;;;;;;;7.40;4.55;;;;;;;10.48;85.55;99714.16;5028724;28;20026;-86
2023/03/23 02:55:55;;;;;;;5.65;5.18;;;;;;;10.62;85.99;99758.81;5029584;28;20021;-83
2023/03/23 02:58:21;;;;;;;5.05;4.40;;;;;;;10.54;85.78;99730.75;5030107;28;20059;-84
2023/03/23 03:00:49;;;;;;;;;;;;;;;10.43;86.93;99769.59;5030243;28;20116;-84
2023/03/23 03:03:18;;;;;;;3.38;3.08;;;;;;;10.34;86.74;99757.41;5030186;28;19913;-84
2023/03/23 03:05:49;;;;;;;4.80;4.40;;;;;;;10.50;86.68;99789.72;5028023;28;20034;-83
2023/03/23 03:08:45;;;;;;;8.68;7.68;;;;;;;10.34;87.74;99783.75;5021740;28;20061;-84
2023/03/23 03:11:16;;;;;;;6.60;6.05;;;;;;;10.43;87.08;99781.94;5018149;28;20435;-85
2023/03/23 03:14:00;;;;;;;5.32;4.80;;;;;;;10.57;86.51;99772.06;5028319;28;20059;-84
2023/03/23 03:17:02;;;;;;;5.00;4.57;;;;;;;10.36;86.29;99737.19;5029874;28;20029;-82
2023/03/23 03:19:35;;;;;;;5.68;3.88;;;;;;;10.55;86.06;99779.97;5050500;28;20419;-85
2023/03/23 03:22:02;;;;;;;7.13;4.40;;;;;;;10.25;85.99;99740.81;5065086;28;20511;-85
2023/03/23 03:24:29;;;;;;;5.10;4.65;;;;;;;10.66;85.79;99798.31;5050014;28;20052;-84
2023/03/23 03:26:59;;;;;;;7.13;6.53;;;;;;;10.45;85.80;99756.41;5066643;28;20110;-86
2023/03/23 03:29:37;;;;;;;11.88;7.05;;;;;;;10.72;85.80;99799.97;5050372;28;20496;-85
2023/03/23 03:32:05;;;;;;;5.05;4.55;;;;;;;10.24;85.92;99736.41;5065140;28;20482;-85
2023/03/23 03:34:32;;;;;;;6.38;5.63;;;;;;;10.13;86.16;99726.00;5067788;28;20510;-84
2023/03/23 03:36:59;;;;;;;5.50;4.93;;;;;;;10.18;88.28;99798.88;5067571;28;20132;-83
2023/03/23 03:39:26;;;;;;;6.15;4.82;;;;;;;10.21;88.02;99788.28;5065962;28;20032;-85
2023/03/23 03:41:52;;;;;;;5.57;4.53;;;;;;;10.10;87.42;99789.28;5066904;28;20037;-83
2023/03/23 03:44:17;;;;;;;;;;;;;;;10.15;87.91;99800.69;5067977;28;20047;-84
2023/03/23 03:46:43;;;;;;;3.63;3.38;;;;;;;9.92;88.13;99764.03;5067150;28;19908;-84
2023/03/23 03:49:10;;;;;;;;;;;;;;;10.19;87.95;99803.28;5068285;28;20052;-85
2023/03/23 03:51:35;;;;;;;5.63;4.13;;;;;;;10.09;88.34;99772.63;5068166;28;19909;-84
2023/03/23 03:54:01;;;;;;;;;;;;;;;10.15;88.45;99798.06;5067848;28;20123;-84
2023/03/23 03:56:26;;;;;;;6.00;5.40;;;;;;;10.19;88.51;99799.72;5032473;28;20375;-84
2023/03/23 03:58:52;;;;;;;;;;;;;;;10.29;87.95;99805.78;5033152;28;20045;-84
2023/03/23 04:01:22;;;;;;;;;;;;;;;10.28;88.35;99798.75;5031153;28;20315;-85
2023/03/23 04:03:48;;;;;;;4.45;4.05;;;;;;;10.40;87.94;99819.75;5032539;28;20007;-84
2023/03/23 04:06:13;;;;;;;7.30;5.07;;;;;;;10.34;87.74;99782.91;5032685;28;20029;-83
2023/03/23 04:08:41;;;;;;;;;;;;;;;10.43;87.19;99806.53;5033535;28;20033;-83
2023/03/23 04:11:10;;;;;;;3.40;3.10;;;;;;;10.33;87.16;99786.41;5032587;28;19948;-85
2023/03/23 04:13:36;;;;;;;2.30;2.10;;;;;;;9.94;87.01;99728.88;5023316;28;20412;-87
2023/03/23 04:16:02;;;;;;;7.38;6.65;;;;;;;10.37;87.21;99793.41;5008693;28;20038;-85
2023/03/23 04:18:28;;;;;;;;;;;;;;;10.48;86.83;99809.09;5009734;28;20039;-84
2023/03/23 04:20:53;;;;;;;5.50;4.18;;;;;;;10.31;87.56;99781.13;5011752;28;19915;-86
2023/03/23 04:23:20;;;;;;;;;;;;;;;10.37;87.45;99810.09;5003227;28;20137;-87
2023/03/23 04:25:47;;;;;;;6.25;4.95;;;;;;;10.34;86.99;99785.53;5006524;28;19917;-90
2023/03/23 04:28:13;;;;;;;6.40;5.65;;;;;;;10.32;86.59;99800.47;5017701;28;20034;-89
2023/03/23 04:30:42;;;;;;;5.57;5.10;;;;;;;10.20;86.19;99754.03;5011715;28;20085;-89
2023/03/23 04:33:14;;;;;;;6.32;5.72;;;;;;;10.11;87.09;99762.91;5011867;28;20065;-88
2023/03/23 04:35:41;;;;;;;4.38;3.97;;;;;;;10.35;87.56;99801.34;5012714;28;20049;-92
2023/03/23 04:38:08;;;;;;;10.57;7.32;;;;;;;10.29;87.13;99792.63;5011607;28;20415;-88
2023/03/23 04:40:39;;;;;;;9.48;3.83;;;;;;;10.46;86.74;99813.53;5011812;28;20144;-89
2023/03/23 04:43:06;;;;;;;9.52;6.25;;;;;;;10.09;86.30;99753.31;5011828;28;20392;-87
2023/03/23 04:45:34;;;;;;;9.10;6.68;;;;;;;10.19;86.17;99755.81;5021076;28;20037;-90
2023/03/23 04:48:01;;;;;;;6.70;4.45;;;;;;;10.23;86.05;99766.31;5046857;28;20057;-86
2023/03/23 04:50:30;;;;;;;6.88;6.15;;;;;;;10.50;86.58;99820.50;5030154;28;20033;-89
2023/03/23 04:52:58;;;;;;;7.95;6.47;;;;;;;10.33;86.60;99792.59;5031055;28;20034;-88
2023/03/23 04:55:25;;;;;;;8.15;7.38;;;;;;;10.52;86.90;99819.59;5027391;28;20033;-90
2023/03/23 04:57:50;;;;;;;9.93;8.82;;;;;;;9.88;87.05;99734.19;5012093;28;20432;-93
2023/03/23 05:00:17;;;;;;;;;;;;;;;10.43;86.75;99816.22;5015082;28;20036;-93
2023/03/23 05:02:46;;;;;;;13.18;7.10;;;;;;;10.38;86.16;99776.72;5031996;28;19962;-91
2023/03/23 05:05:13;;;;;;;8.02;6.60;;;;;;;10.47;86.52;99807.34;5031850;28;20033;-90
2023/03/23 05:07:40;;;;;;;6.65;5.88;;;;;;;10.22;86.34;99773.34;5029929;28;20476;-87
2023/03/23 05:10:07;;;;;;;5.75;5.03;;;;;;;10.38;86.59;99826.81;5031510;28;20021;-88
2023/03/23 05:12:33;;;;;;;10.90;5.97;;;;;;;10.30;87.16;99783.78;5007173;28;20444;-88
2023/03/23 05:14:58;;;;;;;;;;;;;;;10.51;86.99;99828.38;5011714;28;20048;-87
2023/03/23 05:17:24;;;;;;;8.27;5.38;;;;;;;10.56;86.64;99823.06;5012480;28;19917;-87
2023/03/23 05:19:53;;;;;;;;;;;;;;;10.56;86.77;99831.81;5012075;28;20113;-89
2023/03/23 05:22:20;;;;;;;5.20;4.80;;;;;;;10.38;86.58;99785.47;5010835;28;19928;-87
2023/03/23 05:24:47;;;;;;;9.15;8.25;;;;;;;10.50;86.43;99834.56;5011606;28;20046;-90
2023/03/23 05:27:14;;;;;;;10.85;8.90;;;;;;;10.21;87.71;99784.78;5009957;28;20037;-88
2023/03/23 05:29:40;;;;;;;10.45;7.85;;;;;;;10.43;86.50;99795.97;5021827;28;20052;-88
2023/03/23 05:32:07;;;;;;;8.55;7.50;;;;;;;10.47;86.55;99786.25;5015891;28;20034;-87
2023/03/23 05:34:34;;;;;;;7.50;6.07;;;;;;;10.68;86.93;99845.78;5014503;28;20030;-90
2023/03/23 05:37:02;;;;;;;6.15;4.80;;;;;;;10.97;86.65;99863.84;5010047;28;20095;-90
2023/03/23 05:39:29;;;;;;;9.57;7.57;;;;;;;10.83;85.15;99800.72;5009497;28;20041;-88
2023/03/23 05:41:55;;;;;;;6.60;5.55;;;;;;;10.86;84.13;99824.41;5010442;28;20037;-90
2023/03/23 05:44:21;;;;;;;;;;;;;;;11.00;84.88;99860.28;5009752;28;20397;-86
2023/03/23 05:46:47;;;;;;;11.02;8.43;;;;;;;10.51;87.48;99844.22;5008715;28;19933;-87
2023/03/23 05:49:15;;;;;;;6.45;5.85;;;;;;;10.43;87.90;99845.22;5000409;28;20026;-87
2023/03/23 05:51:42;;;;;;;16.50;7.70;;;;;;;10.66;87.42;99866.91;5010390;28;20088;-87
2023/03/23 05:54:08;;;;;;;9.57;8.68;;;;;;;10.68;87.58;99825.53;5019006;28;20032;-87
2023/03/23 05:56:33;;;;;;;;;;;;;;;11.02;86.98;99872.56;5010879;28;20432;-87
2023/03/23 05:58:59;;;;;;;19.73;12.52;;;;;;;10.94;87.14;99840.13;5017166;28;19917;-87
2023/03/23 06:01:25;;;;;;;;;;;;;;;11.35;85.77;99882.66;5016343;28;20017;-89
2023/03/23 06:03:53;;;;;;;14.63;9.90;;;;;;;11.14;86.15;99868.91;5022324;28;19913;-86
2023/03/23 06:06:22;;;;;;;14.60;12.55;;;;;;;11.06;86.13;99849.63;5006070;28;20034;-85
2023/03/23 06:08:50;;;;;;;18.65;11.05;;;;;;;11.09;85.48;99831.09;5010276;28;20428;-85
2023/03/23 06:11:15;;;;;;;11.23;10.13;;;;;;;11.23;85.19;99865.22;5010647;28;20063;-87
2023/03/23 06:13:41;;;;;;;;;;;;;;;11.36;85.09;99885.28;5011284;28;20025;-85
2023/03/23 06:16:08;;;;;;;19.67;9.75;;;;;;;11.29;85.33;99862.50;5015618;28;19980;-85
2023/03/23 06:18:36;;;;;;;18.27;10.23;;;;;;;11.09;84.75;99839.03;5001633;28;20065;-84
2023/03/23 06:21:03;;;;;;;12.20;9.70;;;;;;;10.78;86.76;99847.38;5005712;28;20033;-85
2023/03/23 06:23:28;;;;;;;21.27;13.82;;;;;;;10.84;87.03;99857.84;4998828;28;20057;-85
2023/03/23 06:25:58;;;;;;;;;;;;;;;11.04;87.06;99902.44;5011397;28;20026;-85
2023/03/23 06:28:24;;;;;;;19.63;9.35;;;;;;;11.00;86.88;99894.59;5009603;28;19913;-85
2023/03/23 06:30:49;;;;;;;;;;;;;;;11.32;85.78;99906.47;5009544;28;20459;-85
2023/03/23 06:33:15;;;;;;;8.73;7.88;;;;;;;11.34;85.05;99907.31;5009621;28;20075;-84
2023/03/23 06:35:40;;;;;;;;;;;;;;;11.39;84.46;99906.38;5011403;28;20519;-85
2023/03/23 06:38:06;;;;;;;;;;;;;;;11.40;84.84;99907.22;5029429;28;19920;-84
2023/03/23 06:40:31;;;;;;;;;;;;;;;11.24;85.13;99903.94;5018853;28;19914;-85
2023/03/23 06:42:57;;;;;;;;;;;;;;;11.33;85.10;99902.94;5022457;28;19948;-86
2023/03/23 06:45:22;;;;;;;9.27;8.30;;;;;;;11.08;84.17;99856.63;5012478;28;19986;-85
2023/03/23 06:47:48;;;;;;;;;;;;;;;11.54;83.52;99905.28;5026633;28;20488;-85
2023/03/23 06:50:15;;;;;;;;;;;;;;;11.49;83.38;99907.09;5008045;28;19925;-85
2023/03/23 06:52:40;;;;;;;14.52;11.90;;;;;;;11.22;83.72;99852.94;4992526;28;20016;-85
2023/03/23 06:55:06;;;;;;;;;;;;;;;11.80;83.11;99904.84;4990974;28;20128;-85
2023/03/23 06:57:32;;;;;;;11.77;10.45;;;;;;;11.42;83.07;99856.13;5006602;28;19927;-82
2023/03/23 06:59:58;;;;;;;7.72;6.20;;;;;;;11.45;82.46;99866.66;5025102;28;20026;-85
2023/03/23 07:02:23;;;;;;;;;;;;;;;11.87;81.87;99912.69;5010508;28;20030;-86
2023/03/23 07:04:48;;;;;;;;;;;;;;;12.00;81.73;99914.22;5010719;28;19929;-86
2023/03/23 07:07:18;;;;;;;14.38;8.20;;;;;;;12.15;80.87;99919.25;5010306;28;20313;-85
2023/03/23 07:09:44;;;;;;;28.20;13.20;;;;;;;11.97;80.63;99882.56;5009568;28;20053;-85
2023/03/23 07:12:09;;;;;;;;;;;;;;;12.21;80.68;99906.84;5010946;28;20657;-85
2023/03/23 07:14:35;;;;;;;9.43;7.22;;;;;;;12.03;79.63;99868.34;5009601;28;19975;-85
2023/03/23 07:17:03;;;;;;;15.80;9.30;;;;;;;12.36;78.58;99920.63;5009719;28;20053;-85
2023/03/23 07:19:28;;;;;;;11.73;8.77;;;;;;;12.08;79.40;99880.59;5010225;28;20511;-85
2023/03/23 07:21:54;;;;;;;;;;;;;;;12.33;79.20;99928.63;5009813;28;20057;-85
2023/03/23 07:24:19;;;;;;;12.38;9.25;;;;;;;11.94;80.01;99894.06;5010997;28;19924;-85
2023/03/23 07:26:45;;;;;;;;;;;;;;;12.02;81.42;99924.78;5014250;28;20059;-85
2023/03/23 07:29:10;;;;;;;;;;;;;;;11.70;81.55;99928.81;5013833;28;19913;-85
2023/03/23 07:31:35;;;;;;;21.23;9.88;;;;;;;11.44;81.60;99862.25;5013441;28;19927;-85
2023/03/23 07:34:02;;;;;;;;;;;;;;;12.01;81.29;99931.84;5013972;28;20025;-88
2023/03/23 07:36:28;;;;;;;10.43;5.82;;;;;;;11.62;80.80;99871.66;5013417;28;19913;-85
2023/03/23 07:38:54;;;;;;;;;;;;;;;12.06;81.45;99931.75;5014371;28;20041;-86
2023/03/23 07:41:20;;;;;;;4.95;4.47;;;;;;;11.79;80.62;99859.94;5013286;28;19913;-85
2023/03/23 07:43:45;;;;;;;;;;;;;;;11.98;80.92;99935.41;5013713;28;20412;-86
2023/03/23 07:46:12;;;;;;;8.60;6.80;;;;;;;11.63;80.75;99902.47;5012804;28;20272;-85
2023/03/23 07:48:38;;;;;;;9.07;6.47;;;;;;;11.68;81.37;99926.19;5013010;28;20038;-86
2023/03/23 07:51:05;;;;;;;15.27;9.40;;;;;;;12.06;80.25;99942.34;5013515;28;20152;-85
2023/03/23 07:53:30;;;;;;;10.98;9.52;;;;;;;12.10;78.93;99892.03;5013003;28;20045;-86
2023/03/23 07:55:56;;;;;;;;;;;;;;;12.62;76.94;99931.59;5013260;28;20034;-87
2023/03/23 07:58:22;;;;;;;28.70;10.32;;;;;;;12.67;76.49;99901.50;5011610;28;19920;-86
2023/03/23 08:00:48;;;;;;;23.42;10.27;;;;;;;13.12;75.09;99916.47;5012395;28;20092;-87
2023/03/23 08:03:15;;;;;;;12.25;7.80;;;;;;;13.41;74.90;99918.50;5011986;28;20034;-90
2023/03/23 08:05:41;;;;;;;12.18;8.90;;;;;;;13.29;72.66;99899.31;5012529;28;20479;-89
2023/03/23 08:08:09;;;;;;;12.60;9.98;;;;;;;13.84;72.45;99911.28;5012500;28;20030;-87
2023/03/23 08:10:35;;;;;;;10.68;7.25;;;;;;;14.34;71.41;99910.88;5012347;28;20438;-86
2023/03/23 08:13:01;;;;;;;24.05;13.30;;;;;;;14.79;70.51;99876.00;5012057;28;20033;-87
2023/03/23 08:15:27;;;;;;;10.95;9.90;;;;;;;15.19;68.68;99917.31;5011525;28;20033;-87
2023/03/23 08:17:52;;;;;;;12.98;6.80;;;;;;;15.32;68.52;99915.19;5012329;28;20103;-88
2023/03/23 08:20:18;;;;;;;;;;;;;;;15.63;69.65;99935.47;5012610;28;20037;-87
2023/03/23 08:22:50;;;;;;;15.65;10.57;;;;;;;15.78;65.03;99918.16;5012007;28;20451;-88
2023/03/23 08:25:17;;;;;;;11.43;7.15;;;;;;;15.98;64.96;99938.78;5011814;28;20026;-86
2023/03/23 08:27:43;;;;;;;9.70;8.27;;;;;;;15.81;65.71;99899.44;5012014;28;20034;-86
2023/03/23 08:30:15;;;;;;;22.33;7.28;;;;;;;15.93;63.44;99930.97;5011460;28;20041;-86
2023/03/23 08:32:42;;;;;;;9.00;7.38;;;;;;;16.16;63.84;99910.69;5043583;28;20532;-87
2023/03/23 08:35:09;;;;;;;14.15;6.25;;;;;;;16.14;63.99;99909.00;5011662;28;20045;-86
2023/03/23 08:37:35;;;;;;;7.82;6.00;;;;;;;16.48;61.12;99927.31;5011210;28;20030;-85
2023/03/23 08:40:07;;;;;;;10.45;7.20;;;;;;;16.40;61.30;99930.25;5011519;28;20030;-86
2023/03/23 08:42:33;;;;;;;14.32;8.00;;;;;;;16.19;64.16;99923.91;5011589;28;20037;-86
2023/03/23 08:44:58;;;;;;;7.80;6.35;;;;;;;16.24;61.66;99884.66;5011205;28;20030;-85
2023/03/23 08:47:25;;;;;;;7.97;5.38;;;;;;;16.31;61.69;99885.31;5011249;28;20022;-85
2023/03/23 08:49:52;;;;;;;9.85;7.93;;;;;;;16.81;58.55;99892.41;5011399;28;20032;-85
2023/03/23 08:52:18;;;;;;;15.90;6.60;;;;;;;16.37;59.74;99901.06;5011796;28;20030;-86
2023/03/23 08:54:46;;;;;;;14.82;7.75;;;;;;;16.60;60.82;99894.06;5012178;28;20033;-88
2023/03/23 08:57:14;;;;;;;15.90;11.48;;;;;;;16.44;58.64;99901.75;5012322;28;20026;-85
2023/03/23 08:59:40;;;;;;;9.23;5.93;;;;;;;16.05;58.81;99897.75;5012276;28;20038;-85
2023/03/23 09:02:06;;;;;;;16.83;9.82;;;;;;;16.26;59.10;99904.09;5011699;28;20476;-85
2023/03/23 09:04:32;;;;;;;13.90;8.32;;;;;;;16.40;59.22;99897.44;5012126;28;20026;-85
2023/03/23 09:06:57;;;;;;;8.48;4.03;;;;;;;16.11;59.51;99901.97;5011768;28;20091;-85
2023/03/23 09:09:23;;;;;;;11.43;7.47;;;;;;;15.65;62.46;99903.53;5011844;28;20030;-85
2023/03/23 09:11:49;;;;;;;6.78;5.80;;;;;;;15.44;63.06;99921.00;5010254;28;20121;-85
2023/03/23 09:14:15;;;;;;;11.60;5.40;;;;;;;15.85;63.95;99932.13;5011827;28;20034;-87
2023/03/23 09:16:40;;;;;;;8.73;7.78;;;;;;;16.01;59.08;99866.00;5011659;28;20092;-85
2023/03/23 09:19:08;;;;;;;6.75;5.80;;;;;;;16.56;57.96;99925.25;5012343;28;20022;-85
2023/03/23 09:21:34;;;;;;;8.60;6.43;;;;;;;16.29;59.75;99929.75;5012086;28;20026;-85
2023/03/23 09:24:01;;;;;;;18.30;6.05;;;;;;;16.39;59.29;99924.97;5011725;28;20061;-85
2023/03/23 09:26:27;;;;;;;10.52;7.35;;;;;;;16.36;57.81;99882.47;5011408;28;20192;-85
2023/03/23 09:28:53;;;;;;;11.45;9.80;;;;;;;16.26;60.97;99895.25;5011682;28;20540;-85
2023/03/23 09:31:22;;;;;;;12.30;7.90;;;;;;;16.61;59.67;99925.09;5011625;28;20033;-85
2023/03/23 09:33:51;;;;;;;8.35;5.07;;;;;;;16.37;57.81;99925.03;5011381;28;20037;-85
2023/03/23 09:36:18;;;;;;;9.60;4.43;;;;;;;16.16;57.57;99854.81;5011545;28;20041;-85
2023/03/23 09:38:45;;;;;;;5.97;4.57;;;;;;;16.30;55.05;99918.19;5011246;28;20034;-86
2023/03/23 09:41:49;;;;;;;5.03;3.40;;;;;;;16.40;56.57;99913.41;5011623;28;20091;-86
2023/03/23 09:44:19;;;;;;;16.75;14.00;;;;;;;15.98;56.29;99855.44;5010230;28;20056;-85
2023/03/23 09:47:05;;;;;;;11.35;6.63;;;;;;;16.16;56.94;99852.16;5010995;28;20080;-85
2023/03/23 09:49:42;;;;;;;10.77;6.70;;;;;;;15.78;58.96;99858.78;5011515;28;20045;-86
2023/03/23 09:52:14;;;;;;;10.93;7.60;;;;;;;16.42;58.34;99898.25;5011623;28;20034;-85
2023/03/23 09:54:44;;;;;;;6.68;5.00;;;;;;;16.36;58.65;99867.41;5010862;28;20076;-85
2023/03/23 09:57:27;;;;;;;9.55;5.30;;;;;;;16.64;57.11;99880.56;5010497;28;20117;-87
2023/03/23 10:00:06;;;;;;;5.35;4.10;;;;;;;17.03;55.70;99888.94;5009059;28;20037;-88
2023/03/23 10:03:05;;;;;;;8.93;3.88;;;;;;;17.35;54.17;99896.53;5009949;28;20029;-90
2023/03/23 10:05:51;;;;;;;0.77;0.77;;;;;;;17.13;46.75;99890.31;5030717;28;20479;-86
2023/03/23 10:08:24;;;;;;;5.22;2.45;;;;;;;17.37;47.66;99891.16;5047510;28;20041;-85
2023/03/23 10:11:04;;;;;;;4.95;3.22;;;;;;;16.60;50.79;99811.50;5061982;28;20052;-90
2023/03/23 10:13:38;;;;;;;3.33;2.17;;;;;;;16.80;48.24;99886.19;5046939;28;20458;-87
2023/03/23 10:16:08;;;;;;;2.13;1.67;;;;;;;16.77;48.14;99841.00;5046822;28;20065;-89
2023/03/23 10:18:57;;;;;;;4.72;3.95;;;;;;;17.32;50.17;99840.69;5047836;28;20392;-89
2023/03/23 10:21:23;;;;;;;3.28;2.13;;;;;;;17.43;47.14;99829.56;5046950;28;20040;-88
2023/03/23 10:23:55;;;;;;;5.30;2.63;;;;;;;17.79;46.74;99876.13;5046718;28;20550;-89
2023/03/23 10:26:29;;;;;;;2.85;1.67;;;;;;;17.67;48.73;99873.03;5046075;28;20029;-89
2023/03/23 10:29:10;;;;;;;3.08;2.15;;;;;;;17.45;47.59;99829.50;5046502;28;20045;-88
2023/03/23 10:32:04;;;;;;;3.67;3.38;;;;;;;16.82;50.09;99822.19;5046794;28;20028;-87
2023/03/23 10:34:35;;;;;;;4.55;2.80;;;;;;;17.05;51.01;99866.63;5044154;28;20045;-86
2023/03/23 10:37:04;;;;;;;4.78;3.72;;;;;;;17.60;49.64;99868.03;5046798;28;20049;-88
2023/03/23 10:39:44;;;;;;;4.97;3.30;;;;;;;17.14;47.10;99807.63;5046913;28;20040;-85
2023/03/23 10:42:10;;;;;;;8.80;5.57;;;;;;;17.41;47.53;99826.13;5031322;28;20050;-87
2023/03/23 10:44:36;;;;;;;4.47;3.60;;;;;;;17.42;46.89;99827.81;5009958;28;20417;-86
2023/03/23 10:47:07;;;;;;;7.68;3.45;;;;;;;17.90;46.02;99865.88;5009518;28;20038;-85
2023/03/23 10:49:43;;;;;;;1.50;1.02;;;;;;;17.51;44.34;99824.78;5007117;28;20038;-86
2023/03/23 10:52:24;;;;;;;3.10;2.13;;;;;;;18.01;45.37;99855.63;5008641;28;20531;-86
2023/03/23 10:54:54;;;;;;;1.05;1.05;;;;;;;18.27;44.66;99834.06;4988544;28;20117;-87
2023/03/23 10:57:31;;;;;;;3.15;1.63;;;;;;;18.03;44.14;99775.50;4988355;28;20066;-89
2023/03/23 11:00:22;;;;;;;1.33;1.25;;;;;;;18.64;44.31;99849.28;4989985;28;20026;-86
2023/03/23 11:03:02;;;;;;;3.10;2.53;;;;;;;18.37;46.78;99843.41;5029041;28;20539;-86
2023/03/23 11:05:58;;;;;;;4.03;2.60;;;;;;;17.85;46.90;99839.38;5028478;28;20511;-86
2023/03/23 11:08:31;;;;;;;2.42;1.77;;;;;;;17.74;47.19;99817.63;4951809;28;20043;-87
2023/03/23 11:11:20;;;;;;;2.10;1.95;;;;;;;17.47;48.09;99804.53;4952856;29;20046;-86
2023/03/23 11:13:48;;;;;;;5.10;2.45;;;;;;;17.33;47.50;99807.75;4952859;29;20039;-85
2023/03/23 11:16:30;;;;;;;2.30;1.95;;;;;;;17.69;46.26;99824.97;4952539;28;20043;-86
2023/03/23 11:18:58;;;;;;;2.22;1.63;;;;;;;17.78;47.44;99829.91;4952417;28;20066;-86
2023/03/23 11:21:26;;;;;;;1.65;1.35;;;;;;;17.50;47.41;99815.06;4952905;29;20040;-85
2023/03/23 11:23:57;;;;;;;2.65;1.95;;;;;;;17.44;48.25;99827.75;4952002;28;20153;-86
2023/03/23 11:26:34;;;;;;;2.28;1.67;;;;;;;17.44;49.02;99787.75;4952534;29;20081;-87
2023/03/23 11:29:13;;;;;;;3.15;1.50;;;;;;;17.19;48.99;99818.09;4952339;28;20035;-88
2023/03/23 11:31:42;;;;;;;5.80;2.92;;;;;;;17.15;50.31;99787.19;4936636;28;20059;-86
2023/03/23 11:34:18;;;;;;;2.83;1.95;;;;;;;17.32;50.45;99831.81;4952340;29;20039;-86
2023/03/23 11:36:59;;;;;;;3.47;1.50;;;;;;;17.17;51.29;99799.50;4952315;28;20043;-85
2023/03/23 11:39:27;;;;;;;1.42;1.17;;;;;;;16.86;50.12;99812.31;4945114;29;20048;-83
2023/03/23 11:41:54;;;;;;;1.38;1.23;;;;;;;16.93;49.96;99781.84;4933401;29;20039;-86
2023/03/23 11:44:23;;;;;;;2.28;1.90;;;;;;;16.93;50.65;99789.84;4971059;28;20921;-85
2023/03/23 11:47:05;;;;;;;2.35;1.70;;;;;;;17.20;50.20;99803.00;4993573;28;20033;-83
2023/03/23 11:49:49;;;;;;;3.22;1.98;;;;;;;17.18;50.02;99819.91;4993078;28;20069;-84
2023/03/23 11:52:25;;;;;;;2.97;2.38;;;;;;;16.83;50.64;99765.31;4993586;28;20080;-87
2023/03/23 11:55:02;;;;;;;1.95;1.17;;;;;;;17.48;48.75;99792.91;4994967;28;20023;-87